createdAt,value
2018-07-26T00:00:17.597Z,99454.42
2018-07-26T00:06:23.080Z,99456.70
2018-07-26T00:12:28.542Z,99457.52
2018-07-26T00:18:34.059Z,99460.13
2018-07-26T00:24:39.589Z,99453.81
2018-07-26T00:30:45.137Z,99455.19
2018-07-26T00:36:50.683Z,99455.72
2018-07-26T00:42:56.125Z,99453.84
2018-07-26T00:49:01.659Z,99457.11
2018-07-26T00:55:07.158Z,99453.02
2018-07-26T01:01:12.651Z,99448.89
2018-07-26T01:07:18.121Z,99454.39
2018-07-26T01:13:23.606Z,99450.28
2018-07-26T01:19:29.155Z,99439.63
2018-07-26T01:25:34.660Z,99432.78
2018-07-26T01:31:40.123Z,99430.56
2018-07-26T01:37:45.626Z,99426.22
2018-07-26T01:44:08.047Z,99427.33
2018-07-26T01:50:13.517Z,99426.77
2018-07-26T01:56:19.085Z,99423.20
2018-07-26T02:02:24.582Z,99430.84
2018-07-26T02:08:30.084Z,99429.73
2018-07-26T02:14:35.790Z,99438.66
2018-07-26T02:20:41.290Z,99442.20
2018-07-26T02:26:46.771Z,99442.20
2018-07-26T02:32:52.280Z,99441.82
2018-07-26T02:38:57.842Z,99434.11
2018-07-26T02:45:03.366Z,99433.83
2018-07-26T02:51:08.897Z,99443.91
2018-07-26T02:57:14.429Z,99450.97
2018-07-26T03:03:19.968Z,99449.17
2018-07-26T03:09:25.437Z,99449.33
2018-07-26T03:15:30.920Z,99452.66
2018-07-26T03:21:36.435Z,99452.81
2018-07-26T03:27:41.962Z,99458.19
2018-07-26T03:33:47.414Z,99461.30
2018-07-26T03:39:52.878Z,99455.46
2018-07-26T03:45:58.415Z,99457.68
2018-07-26T03:52:03.963Z,99460.63
2018-07-26T03:58:09.549Z,99464.26
2018-07-26T04:04:15.017Z,99465.58
2018-07-26T04:10:21.126Z,99469.75
2018-07-26T04:16:27.038Z,99464.48
2018-07-26T04:22:32.544Z,99466.05
2018-07-26T04:28:38.283Z,99469.35
2018-07-26T04:34:44.130Z,99471.98
2018-07-26T04:40:50.014Z,99473.77
2018-07-26T04:46:55.938Z,99476.06
2018-07-26T04:53:01.830Z,99481.78
2018-07-26T04:59:07.668Z,99494.50
2018-07-26T05:05:13.493Z,99495.15
2018-07-26T05:11:19.406Z,99505.02
2018-07-26T05:17:25.367Z,99499.63
2018-07-26T05:23:31.229Z,99504.30
2018-07-26T05:29:37.094Z,99511.48
2018-07-26T05:35:42.986Z,99512.86
2018-07-26T05:41:48.778Z,99517.25
2018-07-26T05:47:54.694Z,99522.73
2018-07-26T05:54:00.489Z,99523.25
2018-07-26T06:00:10.880Z,99526.75
2018-07-26T06:06:16.403Z,99530.20
2018-07-26T06:12:21.897Z,99534.11
2018-07-26T06:18:27.413Z,99530.59
2018-07-26T06:24:32.982Z,99536.72
2018-07-26T06:30:38.534Z,99544.78
2018-07-26T06:36:44.017Z,99548.36
2018-07-26T06:42:49.549Z,99547.84
2018-07-26T06:48:55.024Z,99545.61
2018-07-26T06:55:00.518Z,99540.90
2018-07-26T07:01:06.406Z,99546.97
2018-07-26T07:07:12.303Z,99541.55
2018-07-26T07:13:18.091Z,99546.88
2018-07-26T07:19:24.035Z,99544.31
2018-07-26T07:25:29.570Z,99541.67
2018-07-26T07:31:35.308Z,99537.88
2018-07-26T07:37:41.169Z,99537.00
2018-07-26T07:43:47.047Z,99535.98
2018-07-26T07:49:52.883Z,99538.39
2018-07-26T07:55:58.773Z,99540.89
2018-07-26T08:02:04.692Z,99532.34
2018-07-26T08:08:10.660Z,99535.13
2018-07-26T08:14:16.517Z,99535.06
2018-07-26T08:20:22.390Z,99537.25
2018-07-26T08:26:28.284Z,99526.66
2018-07-26T08:32:33.873Z,99535.40
2018-07-26T08:38:39.358Z,99529.24
2018-07-26T08:44:44.942Z,99529.16
2018-07-26T08:50:51.074Z,99531.25
2018-07-26T08:56:57.031Z,99529.78
2018-07-26T09:03:02.897Z,99533.04
2018-07-26T09:09:11.744Z,99535.84
2018-07-26T09:15:17.702Z,99528.80
2018-07-26T09:21:23.679Z,99523.59
2018-07-26T09:27:29.616Z,99525.68
2018-07-26T09:33:35.555Z,99521.69
2018-07-26T09:39:41.458Z,99519.97
2018-07-26T09:45:47.304Z,99504.97
2018-07-26T09:51:53.149Z,99493.17
2018-07-26T09:57:59.064Z,99494.40
2018-07-26T10:04:04.954Z,99488.84
2018-07-26T10:10:10.805Z,99486.62
2018-07-26T10:16:16.701Z,99481.21
2018-07-26T10:22:22.657Z,99481.25
2018-07-26T10:28:28.572Z,99478.75
2018-07-26T10:34:34.484Z,99475.50
2018-07-26T10:40:40.436Z,99468.39
2018-07-26T10:46:46.315Z,99467.41
2018-07-26T10:52:52.170Z,99459.71
2018-07-26T10:58:57.992Z,99440.64
2018-07-26T11:05:03.920Z,99435.35
2018-07-26T11:11:09.809Z,99433.91
2018-07-26T11:17:15.647Z,99436.45
2018-07-26T11:23:21.544Z,99430.70
2018-07-26T11:29:27.518Z,99426.59
2018-07-26T11:35:33.369Z,99429.34
2018-07-26T11:41:39.318Z,99429.52
2018-07-26T11:47:45.222Z,99432.48
2018-07-26T11:53:51.101Z,99423.73
2018-07-26T11:59:56.976Z,99417.47
2018-07-26T12:06:02.912Z,99410.14
2018-07-26T12:12:09.239Z,99406.17
2018-07-26T12:18:15.149Z,99416.55
2018-07-26T12:24:21.028Z,99417.38
2018-07-26T12:30:27.114Z,99404.18
2018-07-26T12:36:32.969Z,99403.30
2018-07-26T12:42:38.904Z,99401.22
2018-07-26T12:48:44.862Z,99388.23
2018-07-26T12:54:51.316Z,99388.91
2018-07-26T13:00:56.904Z,99393.41
2018-07-26T13:07:02.800Z,99388.58
2018-07-26T13:13:08.768Z,99380.19
2018-07-26T13:19:14.740Z,99382.09
2018-07-26T13:25:20.755Z,99384.34
2018-07-26T13:31:26.690Z,99381.58
2018-07-26T13:37:32.565Z,99377.02
2018-07-26T13:43:38.535Z,99372.19
2018-07-26T13:49:44.398Z,99373.09
2018-07-26T13:55:50.309Z,99366.42
2018-07-26T14:01:56.408Z,99353.06
2018-07-26T14:08:02.263Z,99349.27
2018-07-26T14:14:08.660Z,99354.27
2018-07-26T14:20:14.542Z,99349.06
2018-07-26T14:26:20.497Z,99345.01
2018-07-26T14:32:26.426Z,99339.94
2018-07-26T14:38:32.367Z,99334.84
2018-07-26T14:44:38.263Z,99324.67
2018-07-26T14:50:44.233Z,99329.77
2018-07-26T14:56:50.045Z,99330.11
2018-07-26T15:02:55.930Z,99310.80
2018-07-26T15:09:01.658Z,99323.39
2018-07-26T15:15:08.683Z,99326.92
2018-07-26T15:21:14.611Z,99321.39
2018-07-26T15:27:20.504Z,99322.25
2018-07-26T15:33:26.411Z,99317.70
2018-07-26T15:39:32.394Z,99314.51
2018-07-26T15:45:38.376Z,99320.66
2018-07-26T15:51:44.328Z,99304.45
2018-07-26T15:57:50.184Z,99310.77
2018-07-26T16:03:56.058Z,99303.33
2018-07-26T16:10:01.938Z,99312.99
2018-07-26T16:16:07.796Z,99306.89
2018-07-26T16:22:13.733Z,99306.71
2018-07-26T16:28:19.677Z,99303.95
2018-07-26T16:34:25.588Z,99302.85
2018-07-26T16:40:31.457Z,99306.39
2018-07-26T16:46:37.206Z,99308.58
2018-07-26T16:52:43.060Z,99304.47
2018-07-26T16:58:49.064Z,99306.45
2018-07-26T17:04:55.052Z,99310.67
2018-07-26T17:11:01.006Z,99311.75
2018-07-26T17:17:06.923Z,99318.06
2018-07-26T17:23:12.861Z,99315.52
2018-07-26T17:29:18.810Z,99319.66
2018-07-26T17:35:24.618Z,99320.30
2018-07-26T17:41:30.597Z,99322.89
2018-07-26T17:47:36.307Z,99324.78
2018-07-26T17:53:42.195Z,99319.32
2018-07-26T17:59:48.107Z,99327.05
2018-07-26T18:05:53.975Z,99333.91
2018-07-26T18:11:59.726Z,99337.61
2018-07-26T18:18:05.547Z,99340.98
2018-07-26T18:24:11.439Z,99333.00
2018-07-26T18:30:17.387Z,99348.50
2018-07-26T18:36:23.298Z,99352.81
2018-07-26T18:42:29.288Z,99354.77
2018-07-26T18:48:35.156Z,99352.22
2018-07-26T18:54:40.996Z,99360.30
2018-07-26T19:00:46.856Z,99368.35
2018-07-26T19:06:52.739Z,99381.69
2018-07-26T19:12:58.606Z,99386.00
2018-07-26T19:19:04.526Z,99396.00
2018-07-26T19:25:11.231Z,99400.73
2018-07-26T19:31:17.133Z,99408.43
2018-07-26T19:37:22.982Z,99418.39
2018-07-26T19:43:28.883Z,99417.35
2018-07-26T19:49:34.705Z,99415.27
2018-07-26T19:55:40.444Z,99419.74
2018-07-26T20:01:45.937Z,99418.89
2018-07-26T20:07:51.453Z,99417.41
2018-07-26T20:13:56.960Z,99420.20
2018-07-26T20:20:02.614Z,99421.92
2018-07-26T20:26:08.156Z,99419.79
2018-07-26T20:32:13.622Z,99427.19
2018-07-26T20:38:19.161Z,99428.98
2018-07-26T20:44:24.690Z,99439.55
2018-07-26T20:50:30.160Z,99444.89
2018-07-26T20:56:35.767Z,99445.48
2018-07-26T21:02:41.675Z,99455.76
2018-07-26T21:08:47.157Z,99459.66
2018-07-26T21:14:52.650Z,99457.84
2018-07-26T21:20:59.073Z,99473.84
2018-07-26T21:27:04.837Z,99472.71
2018-07-26T21:33:10.344Z,99475.33
2018-07-26T21:39:15.863Z,99476.88
2018-07-26T21:45:21.351Z,99490.47
2018-07-26T21:51:27.162Z,99480.09
2018-07-26T21:57:32.654Z,99486.91
2018-07-26T22:03:38.299Z,99480.53
2018-07-26T22:09:44.230Z,99477.45
2018-07-26T22:15:51.357Z,99473.97
2018-07-26T22:21:57.233Z,99473.21
2018-07-26T22:28:03.178Z,99475.63
2018-07-26T22:34:09.117Z,99480.17
2018-07-26T22:40:15.024Z,99478.48
2018-07-26T22:46:20.888Z,99478.86
2018-07-26T22:52:26.792Z,99473.39
2018-07-26T22:58:32.627Z,99475.08
2018-07-26T23:04:38.487Z,99477.64
2018-07-26T23:10:44.334Z,99475.47
2018-07-26T23:16:50.273Z,99477.06
2018-07-26T23:22:56.902Z,99482.37
2018-07-26T23:29:02.765Z,99475.95
2018-07-26T23:35:09.115Z,99474.08
2018-07-26T23:41:14.628Z,99475.50
2018-07-26T23:47:20.142Z,99464.85
2018-07-26T23:53:25.675Z,99475.91
2018-07-26T23:59:31.148Z,99474.53
